Airfield :
LOGIN :

Register | Disclaimer

   EN    FR    IT 

 










Legend :    VFR   Marginal VFR   IFR   Intensive IFR   Very Intensive IFR
Visi :
Ceiling :
>= 8 km
>= 3000ft
5 to 8 km
1000 to 3000 ft
1500m to 5 km
500 to 1000 ft
800 to 1500m
200 to 500 ft
< 800m
< 200 ft
Symbols :   Thunderstorms  Fog  Heavy snow  Heavy precipitations  Wind > 20 kt
SIGMETs :     Misc.  Thunderstorms  Icing  Turbulence  Mountain Waves  Volcanic Ashes







- Airport Elevation : 1090 ft
- IATA code : CFE
- Download approach charts


LFLC - Clermont-Ferrand Auvergne

CURRENT METAR :
  • 141830Z AUTO 25020KT 9999 FEW016 SCT042 BKN100 10/03 Q1002 TEMPO 23020G35KT

EXPIRED METARs :
  • 141800Z AUTO 23015KT 9999 -RA FEW012/// BKN044/// BKN062/// ///TCU 09/05 Q1002 TEMPO 23020G35KT BECMG SCT040
  • 141730Z AUTO 25022KT 9999 FEW034 SCT170 OVC200 09/04 Q1002 TEMPO 23020G35KT
  • 141700Z AUTO 26020KT 9999 -RADZ SCT033 BKN039 BKN046 09/05 Q1003 TEMPO 23020G35KT
  • 141630Z AUTO 23016KT 9999 -RADZ FEW011 BKN042 BKN058 10/05 Q1003 TEMPO 23020G35KT
  • 141600Z AUTO 22014KT 9999 FEW015 SCT049 BKN200 10/05 Q1003 TEMPO 25020G35KT

TAF AMD TAF LFLC
Valid from the 14 at 16:00 until the 15 at 15:00 UTC


141607Z 1416/1515 23015KT 9999 SCT040
TEMPO 1416/1422 23020G35KT
PROB30
TEMPO 1423/1501 SHRA BKN025 OVC050
BECMG 1500/1503 25008KT
BECMG 1503/1506 CAVOK
TEMPO 1513/1515 SHRA BKN040TCU
ATIS : +33 4 73 62 74 38
No reported NOTAMs for that airfield.
5 SIGMETs reported for the Marseille FIR (LFMM) :
 
Severe turbulence
LFMM SIGMET 14 VALID 141700/142000 LFPW
LFMM MARSEILLE FIR/UIR SEV TURB OBS AT 1700Z N OF LINE N4600 E00300 - N4545 E00700 FL160/300 STNR NC=
Severe turbulence
LFMM SIGMET 13 VALID 141800/142100 LFPW
LFMM MARSEILLE FIR/UIR SEV TURB FCST WI N4630 E00545 - N4630 E00700 - N4430 E00700 - N4415 E00615 - N4630 E00545 SFC/FL130 STNR INTSF=
Severe turbulence
LFMM SIGMET 12 VALID 141830/142000 LFPW
LFMM MARSEILLE FIR/UIR SEV TURB FCST WI N4345 E00245 - N4600 E00300 - N4615 E00345 - N4430 E00430 - N4330 E00245 - N4345 E00245 SFC/FL080 STNR NC=
Severe mountain waves
LFMM SIGMET 11 VALID 141700/142000 LFPW
LFMM MARSEILLE FIR/UIR SEV MTW FCST E OF E00845 SFC/FL270 STNR NC=
Severe turbulence
LFMM SIGMET 10 VALID 141700/142000 LFPW
LFMM MARSEILLE FIR/UIR SEV TURB FCST WI N4345 E00745 - N4315 E00945 - N4115 E00945 - N4115 E00900 - N4230 E00845 - N4330 E00715 - N4345 E00745 SFC/FL070 STNR NC=



MET'MAP, your aeronautical weather chart ! - Copyright ORBIFLY December 2007 - Disclaimer

ORBIFLY MET'MAP TEAM :

Programming & Development : Alexandra Zaïnal
Concept & Development : Baudouin d'Aumeries
Co-Development & Prog : Marc-Olivier Méhu
Technical & hardware support : Manuel Goepfert

Contact : metmap@orbifly.com




SOURCES & CREDITS :

   NOAA